createdAt,value
2022-12-24T00:01:04.195Z,1.02
2022-12-24T00:03:31.853Z,0.98
2022-12-24T00:05:59.384Z,0.80
2022-12-24T00:08:26.724Z,1.00
2022-12-24T00:10:54.135Z,0.80
2022-12-24T00:13:21.479Z,0.90
2022-12-24T00:15:48.917Z,1.25
2022-12-24T00:18:16.333Z,0.85
2022-12-24T00:20:47.713Z,0.80
2022-12-24T00:23:15.755Z,0.95
2022-12-24T00:25:43.084Z,1.00
2022-12-24T00:28:10.660Z,0.88
2022-12-24T00:30:39.134Z,0.82
2022-12-24T00:33:06.581Z,0.90
2022-12-24T00:35:37.611Z,0.85
2022-12-24T00:38:04.941Z,1.05
2022-12-24T00:40:32.439Z,1.20
2022-12-24T00:42:59.824Z,0.82
2022-12-24T00:45:28.067Z,0.98
2022-12-24T00:47:55.421Z,0.95
2022-12-24T00:50:22.702Z,0.80
2022-12-24T00:52:50.030Z,0.80
2022-12-24T00:55:17.415Z,1.02
2022-12-24T00:57:44.734Z,1.00
2022-12-24T01:00:12.277Z,0.90
2022-12-24T01:02:39.705Z,0.90
2022-12-24T01:05:13.019Z,0.90
2022-12-24T01:07:44.572Z,0.90
2022-12-24T01:10:13.632Z,1.05
2022-12-24T01:12:41.005Z,0.90
2022-12-24T01:15:08.968Z,0.90
2022-12-24T01:17:36.405Z,1.00
2022-12-24T01:20:04.407Z,1.38
2022-12-24T01:22:31.759Z,1.00
2022-12-24T01:24:59.081Z,0.98
2022-12-24T01:27:26.424Z,0.93
2022-12-24T01:29:53.773Z,1.25
2022-12-24T01:32:21.101Z,1.20
2022-12-24T01:34:48.391Z,1.10
2022-12-24T01:37:15.745Z,0.93
2022-12-24T01:39:43.083Z,1.00
2022-12-24T01:42:37.485Z,1.02
2022-12-24T01:45:32.870Z,0.95
2022-12-24T01:48:00.186Z,1.05
2022-12-24T01:50:27.504Z,1.13
2022-12-24T01:52:54.797Z,1.00
2022-12-24T01:55:22.120Z,1.00
2022-12-24T01:57:54.581Z,0.90
2022-12-24T02:00:21.929Z,1.10
2022-12-24T02:02:50.235Z,0.80
2022-12-24T02:05:36.041Z,0.93
2022-12-24T02:08:03.767Z,1.13
2022-12-24T02:10:31.170Z,1.08
2022-12-24T02:12:58.600Z,0.82
2022-12-24T02:15:25.940Z,0.90
2022-12-24T02:18:05.156Z,1.20
2022-12-24T02:20:51.062Z,0.90
2022-12-24T02:23:36.821Z,1.00
2022-12-24T02:26:23.600Z,1.10
2022-12-24T02:29:02.877Z,1.10
2022-12-24T02:31:36.826Z,1.02
2022-12-24T02:34:15.871Z,1.00
2022-12-24T02:36:46.725Z,1.17
2022-12-24T02:39:18.945Z,1.00
2022-12-24T02:42:06.683Z,1.10
2022-12-24T02:44:58.354Z,1.13
2022-12-24T02:47:26.796Z,1.20
2022-12-24T02:49:54.349Z,1.30
2022-12-24T02:52:35.753Z,1.00
2022-12-24T02:55:08.232Z,1.00
2022-12-24T02:58:02.171Z,1.13
2022-12-24T03:00:53.924Z,1.10
2022-12-24T03:03:39.236Z,1.30
2022-12-24T03:06:15.686Z,1.17
2022-12-24T03:08:50.660Z,1.20
2022-12-24T03:11:18.187Z,1.33
2022-12-24T03:13:45.736Z,1.13
2022-12-24T03:16:15.666Z,1.20
2022-12-24T03:18:44.538Z,1.00
2022-12-24T03:21:28.606Z,1.50
2022-12-24T03:23:55.949Z,1.00
2022-12-24T03:26:23.505Z,1.23
2022-12-24T03:28:50.957Z,1.13
2022-12-24T03:31:18.830Z,1.20
2022-12-24T03:33:46.315Z,1.40
2022-12-24T03:36:13.799Z,1.40
2022-12-24T03:38:41.203Z,1.10
2022-12-24T03:41:08.609Z,1.20
2022-12-24T03:43:36.044Z,1.40
2022-12-24T03:46:07.370Z,1.38
2022-12-24T03:48:35.391Z,1.23
2022-12-24T03:51:03.133Z,1.40
2022-12-24T03:53:30.428Z,1.25
2022-12-24T03:55:57.768Z,1.00
2022-12-24T03:58:25.137Z,1.20
2022-12-24T04:00:53.758Z,1.20
2022-12-24T04:03:21.302Z,1.00
2022-12-24T04:05:48.756Z,1.30
2022-12-24T04:08:16.091Z,1.17
2022-12-24T04:10:43.394Z,1.38
2022-12-24T04:13:10.697Z,1.10
2022-12-24T04:15:37.993Z,1.23
2022-12-24T04:18:05.362Z,0.93
2022-12-24T04:20:32.612Z,1.25
2022-12-24T04:22:59.932Z,1.10
2022-12-24T04:25:27.283Z,1.05
2022-12-24T04:27:54.580Z,1.05
2022-12-24T04:30:21.854Z,1.00
2022-12-24T04:32:49.242Z,1.25
2022-12-24T04:35:16.537Z,1.20
2022-12-24T04:37:43.818Z,0.90
2022-12-24T04:40:11.417Z,1.08
2022-12-24T04:42:38.742Z,1.25
2022-12-24T04:45:06.510Z,1.10
2022-12-24T04:47:33.886Z,0.95
2022-12-24T04:50:01.583Z,0.95
2022-12-24T04:52:28.873Z,1.00
2022-12-24T04:54:56.175Z,1.30
2022-12-24T04:57:23.432Z,1.35
2022-12-24T04:59:50.770Z,0.95
2022-12-24T05:02:18.252Z,1.17
2022-12-24T05:04:45.725Z,0.90
2022-12-24T05:07:13.020Z,1.10
2022-12-24T05:09:40.350Z,1.00
2022-12-24T05:12:07.758Z,0.90
2022-12-24T05:14:35.093Z,0.85
2022-12-24T05:17:02.440Z,1.17
2022-12-24T05:19:29.841Z,1.20
2022-12-24T05:22:15.780Z,0.90
2022-12-24T05:25:01.606Z,1.00
2022-12-24T05:27:28.927Z,1.15
2022-12-24T05:29:56.321Z,1.10
2022-12-24T05:32:23.615Z,0.93
2022-12-24T05:34:50.896Z,1.08
2022-12-24T05:37:18.300Z,0.98
2022-12-24T05:39:45.585Z,1.05
2022-12-24T05:42:12.883Z,1.13
2022-12-24T05:44:40.148Z,1.15
2022-12-24T05:47:07.419Z,1.33
2022-12-24T05:49:34.743Z,1.60
2022-12-24T05:52:02.033Z,1.00
2022-12-24T05:54:29.456Z,1.15
2022-12-24T05:56:56.817Z,1.05
2022-12-24T05:59:24.132Z,1.05
2022-12-24T06:01:51.422Z,0.95
2022-12-24T06:04:23.190Z,1.33
2022-12-24T06:06:55.575Z,1.30
2022-12-24T06:09:22.887Z,1.65
2022-12-24T06:11:50.298Z,1.17
2022-12-24T06:14:17.628Z,0.98
2022-12-24T06:16:44.943Z,1.13
2022-12-24T06:19:12.416Z,1.10
2022-12-24T06:21:39.795Z,1.33
2022-12-24T06:24:07.293Z,1.10
2022-12-24T06:26:34.681Z,1.40
2022-12-24T06:29:01.936Z,1.10
2022-12-24T06:31:29.293Z,1.17
2022-12-24T06:33:56.888Z,1.30
2022-12-24T06:36:24.973Z,0.98
2022-12-24T06:38:52.980Z,0.98
2022-12-24T06:41:20.602Z,1.48
2022-12-24T06:43:49.490Z,1.02
2022-12-24T06:46:17.034Z,1.00
2022-12-24T06:48:45.319Z,1.00
2022-12-24T06:51:13.215Z,1.00
2022-12-24T06:53:41.222Z,0.80
2022-12-24T06:56:09.907Z,1.00
2022-12-24T06:58:37.393Z,1.00
2022-12-24T07:01:06.146Z,1.00
2022-12-24T07:03:34.097Z,1.08
2022-12-24T07:06:01.435Z,1.20
2022-12-24T07:08:28.807Z,0.80
2022-12-24T07:10:56.195Z,0.80
2022-12-24T07:13:23.482Z,1.00
2022-12-24T07:15:58.622Z,0.77
2022-12-24T07:18:26.288Z,1.10
2022-12-24T07:20:53.717Z,0.90
2022-12-24T07:23:21.065Z,1.20
2022-12-24T07:25:48.349Z,0.98
2022-12-24T07:28:15.668Z,0.80
2022-12-24T07:30:42.977Z,1.00
2022-12-24T07:33:10.308Z,1.20
2022-12-24T07:35:37.601Z,0.90
2022-12-24T07:38:04.912Z,0.80
2022-12-24T07:40:34.298Z,1.00
2022-12-24T07:43:01.635Z,0.70
2022-12-24T07:45:29.042Z,0.88
2022-12-24T07:47:56.971Z,0.77
2022-12-24T07:50:24.249Z,0.70
2022-12-24T07:52:51.564Z,0.50
2022-12-24T07:55:18.860Z,0.80
2022-12-24T07:57:46.157Z,0.75
2022-12-24T08:00:13.791Z,0.63
2022-12-24T08:02:41.314Z,0.82
2022-12-24T08:05:09.083Z,0.80
2022-12-24T08:07:36.366Z,0.88
2022-12-24T08:10:04.130Z,0.88
2022-12-24T08:12:31.422Z,0.90
2022-12-24T08:14:58.747Z,1.00
2022-12-24T08:17:31.986Z,1.00
2022-12-24T08:19:59.796Z,0.80
2022-12-24T08:22:27.091Z,0.70
2022-12-24T08:24:54.374Z,0.80
2022-12-24T08:27:21.692Z,0.70
2022-12-24T08:29:49.094Z,0.90
2022-12-24T08:32:16.377Z,0.88
2022-12-24T08:34:43.681Z,0.80
2022-12-24T08:37:11.110Z,0.90
2022-12-24T08:39:38.514Z,0.98
2022-12-24T08:42:05.990Z,0.90
2022-12-24T08:44:33.411Z,1.00
2022-12-24T08:47:00.746Z,1.10
2022-12-24T08:49:28.123Z,1.13
2022-12-24T08:51:55.435Z,0.70
2022-12-24T08:54:23.940Z,1.10
2022-12-24T08:56:51.354Z,0.80
2022-12-24T08:59:18.704Z,0.95
2022-12-24T09:01:46.128Z,0.68
2022-12-24T09:04:13.582Z,1.20
2022-12-24T09:06:40.872Z,1.17
2022-12-24T09:09:08.671Z,0.85
2022-12-24T09:11:36.059Z,0.90
2022-12-24T09:14:03.474Z,0.70
2022-12-24T09:16:30.874Z,0.90
2022-12-24T09:18:58.530Z,0.82
2022-12-24T09:21:25.837Z,0.90
2022-12-24T09:23:53.144Z,0.80
2022-12-24T09:26:25.507Z,0.80
2022-12-24T09:28:53.034Z,0.90
2022-12-24T09:31:20.523Z,0.88
2022-12-24T09:33:48.922Z,0.80
2022-12-24T09:36:16.401Z,0.90
2022-12-24T09:38:43.804Z,1.15
2022-12-24T09:41:12.143Z,0.98
2022-12-24T09:43:39.501Z,1.20
2022-12-24T09:46:11.389Z,0.80
2022-12-24T09:48:41.284Z,0.93
2022-12-24T09:51:15.942Z,0.85
2022-12-24T09:54:10.171Z,0.82
2022-12-24T09:56:44.282Z,1.42
2022-12-24T09:59:22.108Z,0.85
2022-12-24T10:01:53.988Z,1.15
2022-12-24T10:04:26.961Z,1.17
2022-12-24T10:07:09.567Z,1.33
2022-12-24T10:09:42.868Z,1.25
2022-12-24T10:12:47.731Z,1.00
2022-12-24T10:15:26.617Z,1.00
2022-12-24T10:18:06.599Z,1.02
2022-12-24T10:20:39.733Z,1.00
2022-12-24T10:23:22.169Z,1.15
2022-12-24T10:25:58.181Z,0.80
2022-12-24T10:28:32.429Z,1.10
2022-12-24T10:31:01.632Z,1.35
2022-12-24T10:34:18.173Z,1.10
2022-12-24T10:36:45.567Z,0.90
2022-12-24T10:39:21.809Z,0.90
2022-12-24T10:41:51.412Z,1.30
2022-12-24T10:44:21.001Z,1.20
2022-12-24T10:46:48.412Z,1.27
2022-12-24T10:49:18.234Z,7.28
2022-12-24T10:51:58.734Z,1.40
2022-12-24T10:54:28.062Z,1.20
2022-12-24T10:57:00.421Z,1.27
2022-12-24T10:59:34.315Z,0.90
2022-12-24T11:02:01.830Z,1.27
2022-12-24T11:04:32.927Z,0.80
2022-12-24T11:07:07.175Z,1.15
2022-12-24T11:09:36.730Z,1.20
2022-12-24T11:12:08.991Z,1.35
2022-12-24T11:14:38.077Z,0.98
2022-12-24T11:17:05.440Z,1.20
2022-12-24T11:19:38.750Z,1.40
2022-12-24T11:22:23.787Z,1.08
2022-12-24T11:25:33.902Z,1.08
2022-12-24T11:28:26.638Z,1.08
2022-12-24T11:31:01.290Z,1.20
2022-12-24T11:33:29.575Z,0.90
2022-12-24T11:36:01.115Z,1.10
2022-12-24T11:38:28.935Z,1.10
2022-12-24T11:41:04.279Z,0.80
2022-12-24T11:43:45.536Z,0.90
2022-12-24T11:46:35.733Z,0.90
2022-12-24T11:49:08.350Z,1.08
2022-12-24T11:51:35.984Z,0.80
2022-12-24T11:54:12.368Z,1.10
2022-12-24T11:56:43.272Z,1.10
2022-12-24T11:59:13.678Z,0.90
2022-12-24T12:01:53.118Z,1.15
2022-12-24T12:04:31.161Z,1.13
2022-12-24T12:07:21.023Z,1.30
2022-12-24T12:09:50.918Z,1.00
2022-12-24T12:12:22.106Z,1.10
2022-12-24T12:14:54.422Z,0.90
2022-12-24T12:17:35.614Z,1.10
2022-12-24T12:20:22.920Z,1.50
2022-12-24T12:23:09.876Z,1.40
2022-12-24T12:25:51.276Z,1.00
2022-12-24T12:28:22.688Z,1.40
2022-12-24T12:30:58.481Z,1.00
2022-12-24T12:33:33.957Z,1.13
2022-12-24T12:36:01.281Z,1.15
2022-12-24T12:38:31.822Z,1.10
2022-12-24T12:41:41.493Z,1.17
2022-12-24T12:44:24.957Z,1.40
2022-12-24T12:47:02.315Z,1.10
2022-12-24T12:49:34.140Z,1.20
2022-12-24T12:52:10.502Z,1.48
2022-12-24T12:54:42.834Z,1.23
2022-12-24T12:57:12.529Z,1.23
2022-12-24T12:59:47.892Z,0.82
2022-12-24T13:02:58.070Z,1.38
2022-12-24T13:06:04.566Z,1.42
2022-12-24T13:08:58.820Z,1.40
2022-12-24T13:11:44.685Z,1.08
2022-12-24T13:14:42.989Z,1.00
2022-12-24T13:17:23.063Z,1.35
2022-12-24T13:20:08.857Z,1.02
2022-12-24T13:22:36.252Z,1.00
2022-12-24T13:25:03.673Z,1.20
2022-12-24T13:27:32.681Z,1.35
2022-12-24T13:30:10.488Z,1.33
2022-12-24T13:32:51.405Z,1.30
2022-12-24T13:35:26.248Z,1.48
2022-12-24T13:37:53.688Z,1.02
2022-12-24T13:40:24.561Z,1.30
2022-12-24T13:43:02.569Z,1.42
2022-12-24T13:45:30.239Z,1.00
2022-12-24T13:48:07.147Z,1.15
2022-12-24T13:50:43.254Z,1.08
2022-12-24T13:53:29.486Z,1.20
2022-12-24T13:56:00.727Z,0.80
2022-12-24T13:58:28.357Z,1.27
2022-12-24T14:01:00.434Z,1.00
2022-12-24T14:03:33.833Z,1.10
2022-12-24T14:06:12.038Z,0.93
2022-12-24T14:08:42.100Z,1.02
2022-12-24T14:11:23.229Z,1.10
2022-12-24T14:13:51.615Z,1.10
2022-12-24T14:16:19.985Z,1.20
2022-12-24T14:19:01.766Z,1.25
2022-12-24T14:21:34.335Z,1.35
2022-12-24T14:24:19.854Z,1.30
2022-12-24T14:26:56.227Z,1.10
2022-12-24T14:29:34.350Z,1.10
2022-12-24T14:32:04.829Z,1.00
2022-12-24T14:34:32.303Z,1.23
2022-12-24T14:36:59.883Z,1.02
2022-12-24T14:39:38.472Z,1.00
2022-12-24T14:42:16.156Z,0.95
2022-12-24T14:44:52.340Z,1.70
2022-12-24T14:47:41.696Z,0.90
2022-12-24T14:50:30.350Z,1.00
2022-12-24T14:53:19.504Z,0.93
2022-12-24T14:55:48.095Z,0.98
2022-12-24T14:58:31.200Z,1.38
2022-12-24T15:01:03.747Z,1.10
2022-12-24T15:03:32.176Z,1.17
2022-12-24T15:06:04.394Z,1.20
2022-12-24T15:08:38.045Z,0.90
2022-12-24T15:11:07.182Z,1.40
2022-12-24T15:13:46.099Z,1.13
2022-12-24T15:16:14.694Z,1.23
2022-12-24T15:18:48.315Z,1.30
2022-12-24T15:21:20.081Z,1.20
2022-12-24T15:23:49.274Z,1.40
2022-12-24T15:26:19.329Z,1.42
2022-12-24T15:28:46.778Z,1.30
2022-12-24T15:31:20.912Z,1.30
2022-12-24T15:33:48.952Z,1.20
2022-12-24T15:36:18.126Z,1.42
2022-12-24T15:38:46.372Z,1.40
2022-12-24T15:41:18.051Z,1.48
2022-12-24T15:43:46.087Z,1.70
2022-12-24T15:46:20.301Z,1.58
2022-12-24T15:48:47.973Z,1.52
2022-12-24T15:51:30.745Z,1.55
2022-12-24T15:54:13.838Z,1.80
2022-12-24T15:56:45.863Z,1.92
2022-12-24T15:59:17.836Z,2.00
2022-12-24T16:01:45.585Z,1.70
2022-12-24T16:04:14.691Z,1.92
2022-12-24T16:06:55.692Z,1.63
2022-12-24T16:09:35.837Z,2.00
2022-12-24T16:12:24.567Z,1.90
2022-12-24T16:14:59.055Z,1.85
2022-12-24T16:17:30.228Z,1.80
2022-12-24T16:20:00.706Z,2.42
2022-12-24T16:22:35.197Z,1.98
2022-12-24T16:25:22.929Z,1.92
2022-12-24T16:27:50.650Z,1.98
2022-12-24T16:30:19.229Z,2.00
2022-12-24T16:32:47.331Z,2.00
2022-12-24T16:35:27.158Z,3.20
2022-12-24T16:37:55.084Z,2.30
2022-12-24T16:40:27.246Z,1.90
2022-12-24T16:43:15.108Z,1.80
2022-12-24T16:45:42.518Z,1.58
2022-12-24T16:48:11.455Z,1.75
2022-12-24T16:50:38.792Z,1.73
2022-12-24T16:53:06.108Z,1.50
2022-12-24T16:55:33.495Z,1.50
2022-12-24T16:58:00.808Z,1.77
2022-12-24T17:00:28.088Z,1.80
2022-12-24T17:02:55.472Z,1.75
2022-12-24T17:05:23.964Z,1.90
2022-12-24T17:07:51.522Z,1.67
2022-12-24T17:10:20.054Z,1.60
2022-12-24T17:12:47.360Z,1.77
2022-12-24T17:15:14.736Z,1.52
2022-12-24T17:17:42.085Z,1.85
2022-12-24T17:20:09.829Z,2.70
2022-12-24T17:22:37.426Z,1.77
2022-12-24T17:25:05.807Z,1.75
2022-12-24T17:27:33.480Z,2.42
2022-12-24T17:30:00.962Z,1.85
2022-12-24T17:32:28.448Z,2.00
2022-12-24T17:34:55.827Z,1.95
2022-12-24T17:37:23.135Z,1.90
2022-12-24T17:39:50.462Z,2.65
2022-12-24T17:42:17.853Z,2.20
2022-12-24T17:44:45.449Z,2.10
2022-12-24T17:47:12.738Z,2.30
2022-12-24T17:49:40.076Z,2.20
2022-12-24T17:52:07.364Z,2.33
2022-12-24T17:54:34.692Z,2.28
2022-12-24T17:57:02.002Z,2.20
2022-12-24T17:59:29.347Z,2.47
2022-12-24T18:01:56.783Z,2.40
2022-12-24T18:04:24.185Z,3.08
2022-12-24T18:06:55.008Z,2.33
2022-12-24T18:09:29.186Z,2.20
2022-12-24T18:11:56.467Z,2.60
2022-12-24T18:14:23.931Z,1.88
2022-12-24T18:16:51.302Z,2.17
2022-12-24T18:19:18.834Z,2.50
2022-12-24T18:21:46.208Z,2.20
2022-12-24T18:24:13.513Z,2.25
2022-12-24T18:26:40.898Z,2.22
2022-12-24T18:29:09.279Z,2.10
2022-12-24T18:31:36.781Z,2.15
2022-12-24T18:34:05.336Z,2.30
2022-12-24T18:36:33.092Z,2.05
2022-12-24T18:39:01.293Z,2.10
2022-12-24T18:41:29.810Z,2.13
2022-12-24T18:43:57.268Z,2.13
2022-12-24T18:46:33.878Z,2.33
2022-12-24T18:49:01.430Z,2.53
2022-12-24T18:51:34.304Z,2.75
2022-12-24T18:54:03.055Z,3.88
2022-12-24T18:56:30.507Z,4.05
2022-12-24T18:58:59.485Z,2.92
2022-12-24T19:01:31.586Z,2.60
2022-12-24T19:03:59.143Z,3.03
2022-12-24T19:06:26.499Z,3.10
2022-12-24T19:08:58.989Z,2.70
2022-12-24T19:11:28.941Z,2.72
2022-12-24T19:13:58.108Z,2.70
2022-12-24T19:16:26.260Z,2.35
2022-12-24T19:18:53.934Z,2.42
2022-12-24T19:21:21.395Z,2.70
2022-12-24T19:23:48.916Z,2.58
2022-12-24T19:26:16.992Z,2.50
2022-12-24T19:28:44.428Z,2.70
2022-12-24T19:31:14.301Z,3.20
2022-12-24T19:33:45.846Z,2.45
2022-12-24T19:36:15.673Z,2.70
2022-12-24T19:38:43.033Z,2.63
2022-12-24T19:41:14.865Z,2.38
2022-12-24T19:43:50.149Z,2.35
2022-12-24T19:46:21.719Z,2.65
2022-12-24T19:48:53.308Z,2.60
2022-12-24T19:51:21.184Z,2.60
2022-12-24T19:53:48.826Z,2.35
2022-12-24T19:56:20.587Z,2.50
2022-12-24T19:58:48.300Z,2.80
2022-12-24T20:01:20.278Z,3.20
2022-12-24T20:03:47.931Z,3.40
2022-12-24T20:06:15.980Z,3.33
2022-12-24T20:08:43.462Z,3.40
2022-12-24T20:11:13.378Z,3.20
2022-12-24T20:13:40.931Z,2.78
2022-12-24T20:16:16.678Z,2.30
2022-12-24T20:18:44.101Z,2.72
2022-12-24T20:21:12.097Z,2.30
2022-12-24T20:23:40.249Z,2.53
2022-12-24T20:26:08.606Z,2.20
2022-12-24T20:28:36.546Z,2.47
2022-12-24T20:31:30.389Z,2.40
2022-12-24T20:33:58.063Z,2.70
2022-12-24T20:36:25.693Z,2.50
2022-12-24T20:38:53.251Z,2.65
2022-12-24T20:41:21.820Z,2.70
2022-12-24T20:43:49.298Z,2.80
2022-12-24T20:46:17.947Z,2.60
2022-12-24T20:48:45.413Z,2.80
2022-12-24T20:51:31.023Z,3.13
2022-12-24T20:53:59.552Z,3.33
2022-12-24T20:56:26.935Z,3.92
2022-12-24T20:58:54.337Z,3.25
2022-12-24T21:01:26.601Z,3.20
2022-12-24T21:03:55.045Z,3.30
2022-12-24T21:06:23.430Z,3.05
2022-12-24T21:08:50.936Z,3.10
2022-12-24T21:11:36.889Z,2.90
2022-12-24T21:14:04.296Z,3.10
2022-12-24T21:16:32.042Z,2.88
2022-12-24T21:18:59.457Z,3.30
2022-12-24T21:21:26.777Z,2.92
2022-12-24T21:23:54.270Z,2.67
2022-12-24T21:26:21.644Z,3.10
2022-12-24T21:28:50.353Z,2.55
2022-12-24T21:31:18.188Z,2.80
2022-12-24T21:33:45.763Z,3.00
2022-12-24T21:36:13.519Z,2.88
2022-12-24T21:38:43.480Z,2.97
2022-12-24T21:41:12.833Z,3.10
2022-12-24T21:43:40.253Z,2.65
2022-12-24T21:46:12.417Z,2.53
2022-12-24T21:48:58.763Z,2.88
2022-12-24T21:51:26.791Z,2.85
2022-12-24T21:54:13.062Z,2.90
2022-12-24T21:56:58.905Z,2.90
2022-12-24T21:59:26.984Z,2.50
2022-12-24T22:01:55.725Z,2.55
2022-12-24T22:04:23.710Z,3.88
2022-12-24T22:07:09.640Z,2.88
2022-12-24T22:09:58.462Z,2.88
2022-12-24T22:12:28.540Z,2.60
2022-12-24T22:14:55.865Z,2.85
2022-12-24T22:17:25.853Z,2.85
2022-12-24T22:19:54.478Z,3.08
2022-12-24T22:22:22.116Z,2.53
2022-12-24T22:24:49.557Z,2.60
2022-12-24T22:27:16.864Z,2.45
2022-12-24T22:29:44.229Z,2.53
2022-12-24T22:32:11.565Z,2.92
2022-12-24T22:34:38.931Z,2.80
2022-12-24T22:37:06.290Z,2.88
2022-12-24T22:39:33.624Z,2.92
2022-12-24T22:42:00.942Z,2.50
2022-12-24T22:44:28.779Z,2.63
2022-12-24T22:46:56.087Z,2.92
2022-12-24T22:49:23.367Z,2.53
2022-12-24T22:51:50.695Z,2.35
2022-12-24T22:54:18.049Z,2.65
2022-12-24T22:56:45.333Z,2.33
2022-12-24T22:59:12.840Z,2.60
2022-12-24T23:01:41.240Z,2.28
2022-12-24T23:04:08.823Z,2.65
2022-12-24T23:06:36.222Z,2.60
2022-12-24T23:09:04.367Z,2.95
2022-12-24T23:11:31.665Z,2.90
2022-12-24T23:14:17.497Z,3.08
2022-12-24T23:16:44.830Z,4.03
2022-12-24T23:19:12.120Z,4.05
2022-12-24T23:21:39.498Z,4.38
2022-12-24T23:24:07.235Z,3.83
2022-12-24T23:26:34.536Z,4.47
2022-12-24T23:29:01.816Z,4.30
2022-12-24T23:31:30.092Z,4.10
2022-12-24T23:33:57.511Z,4.25
2022-12-24T23:36:24.838Z,3.92
2022-12-24T23:38:53.570Z,4.13
2022-12-24T23:41:20.870Z,4.25
2022-12-24T23:43:48.248Z,3.75
2022-12-24T23:46:16.593Z,4.25
2022-12-24T23:48:45.869Z,3.72
2022-12-24T23:51:19.054Z,3.97
2022-12-24T23:53:46.443Z,3.38
2022-12-24T23:56:13.927Z,3.30
2022-12-24T23:58:41.808Z,3.00
